Mary Roberts — WDG9020 — position and weather

sailwx.info

Track history (hours):
 
Tides and Currents Weather Stations Pressure Air Temp Water Temp Dewpoint Dewpoint Depression Visibility Wind Speed Wind Dir Waves Ship Positions

Mary Roberts

Owner: Martin Operating Partnership LP, La Porte, TX. More information available from US FCC via Universal Licensing System and Coast Guard Vessel Documentation Center.

Last reported at 2017-Oct-14 14:34 UTC. Time now 2017-Oct-17 22:28 UTC.
Position N 29°58' W 093°52'.

; draft 3 m.

Type: Tug. MMSI: 367583480.

Date/timePositionNaut miles runAvg speedWind from/ knotsBaromVisibWave heightAir tempDewpointWater temp
2017-Oct-14 14:34N 29°58' W 093°52'0 0.0
2017-Oct-14 14:30N 29°58' W 093°52'0 0.0
2017-Oct-14 14:01N 29°58' W 093°52'0 0.0
2017-Oct-14 12:46N 29°58' W 093°52'0 0.0
2017-Oct-14 12:29N 29°58' W 093°52'0 0.0
2017-Oct-14 11:52N 29°58' W 093°52'0 0.0
2017-Oct-14 11:28N 29°58' W 093°52'0 0.0
2017-Oct-14 11:00N 29°58' W 093°52'0 0.0
2017-Oct-14 09:46N 29°58' W 093°52'0 0.0
2017-Oct-14 09:23N 29°58' W 093°52'0 0.0
2017-Oct-14 07:36N 29°58' W 093°52'0 0.0
2017-Oct-14 07:31N 29°58' W 093°52'0 0.0
2017-Oct-13 13:43N 29°58' W 093°52'1 2.1
2017-Oct-13 13:26N 29°57' W 093°52'0 0.0
2017-Oct-13 13:00N 29°57' W 093°52'0 0.0
2017-Oct-13 08:20N 29°57' W 093°52'0 0.0
2017-Oct-13 08:00N 29°57' W 093°52'0 0.0
2017-Oct-13 07:30N 29°57' W 093°52'0 0.0
2017-Oct-13 05:40N 29°57' W 093°52'11 1.0
2017-Oct-12 19:12N 30°04' W 093°41'1 6.6
2017-Oct-12 19:00N 30°04' W 093°39'3 6.3
2017-Oct-12 18:31N 30°04' W 093°36'3 6.3
2017-Oct-12 18:01N 30°04' W 093°32'3 6.1
2017-Oct-12 17:31N 30°04' W 093°29'3 6.1
2017-Oct-12 17:01N 30°04' W 093°25'3 6.2
2017-Oct-12 16:31N 30°04' W 093°22'3 6.6
2017-Oct-12 16:01N 30°06' W 093°19'2 3.3
2017-Oct-12 15:30N 30°05' W 093°17'1 1.5
2017-Oct-12 15:01N 30°05' W 093°17'0 0.0
2017-Oct-12 14:30N 30°05' W 093°17'2 3.8
2017-Oct-12 14:01N 30°03' W 093°16'3 5.3
2017-Oct-12 13:31N 30°01' W 093°14'2 3.2
2017-Oct-12 13:00N 29°60' W 093°13'0 0.2
2017-Oct-12 12:30N 29°59' W 093°13'3 5.1
2017-Oct-12 12:00N 29°58' W 093°11'43 5.3
2017-Oct-12 03:57N 29°51' W 092°22'2 4.4
2017-Oct-12 03:31N 29°50' W 092°20'1 1.1
2017-Oct-12 03:00N 29°50' W 092°19'2 3.2
2017-Oct-12 02:31N 29°49' W 092°18'2 4.6
2017-Oct-12 02:00N 29°48' W 092°15'3 5.7
2017-Oct-12 01:30N 29°47' W 092°12'2 4.8
2017-Oct-12 01:01N 29°47' W 092°10'3 6.1
2017-Oct-12 00:30N 29°48' W 092°06'3 5.9
2017-Oct-12 00:00N 29°49' W 092°03'3 5.3
2017-Oct-11 23:30N 29°50' W 092°00'  
Track history (hours):
 
Tides and Currents Weather Stations Pressure Air Temp Water Temp Dewpoint Dewpoint Depression Visibility Wind Speed Wind Dir Waves Ship Positions

Mary Roberts

Owner: Martin Operating Partnership LP, La Porte, TX. More information available from US FCC via Universal Licensing System and Coast Guard Vessel Documentation Center.

Last reported at 2017-Oct-14 14:34 UTC. Time now 2017-Oct-17 22:28 UTC.
Position N 29°58' W 093°52'.

; draft 3 m.

Type: Tug. MMSI: 367583480.

Date/timePositionNaut miles runAvg speedWind from/ knotsBaromVisibWave heightAir tempDewpointWater temp
2017-Oct-14 14:34N 29°58' W 093°52'0 0.0
2017-Oct-14 14:30N 29°58' W 093°52'0 0.0
2017-Oct-14 14:01N 29°58' W 093°52'0 0.0
2017-Oct-14 12:46N 29°58' W 093°52'0 0.0
2017-Oct-14 12:29N 29°58' W 093°52'0 0.0
2017-Oct-14 11:52N 29°58' W 093°52'0 0.0
2017-Oct-14 11:28N 29°58' W 093°52'0 0.0
2017-Oct-14 11:00N 29°58' W 093°52'0 0.0
2017-Oct-14 09:46N 29°58' W 093°52'0 0.0
2017-Oct-14 09:23N 29°58' W 093°52'0 0.0
2017-Oct-14 07:36N 29°58' W 093°52'0 0.0
2017-Oct-14 07:31N 29°58' W 093°52'0 0.0
2017-Oct-13 13:43N 29°58' W 093°52'1 2.1
2017-Oct-13 13:26N 29°57' W 093°52'0 0.0
2017-Oct-13 13:00N 29°57' W 093°52'0 0.0
2017-Oct-13 08:20N 29°57' W 093°52'0 0.0
2017-Oct-13 08:00N 29°57' W 093°52'0 0.0
2017-Oct-13 07:30N 29°57' W 093°52'0 0.0
2017-Oct-13 05:40N 29°57' W 093°52'11 1.0
2017-Oct-12 19:12N 30°04' W 093°41'1 6.6
2017-Oct-12 19:00N 30°04' W 093°39'3 6.3
2017-Oct-12 18:31N 30°04' W 093°36'3 6.3
2017-Oct-12 18:01N 30°04' W 093°32'3 6.1
2017-Oct-12 17:31N 30°04' W 093°29'3 6.1
2017-Oct-12 17:01N 30°04' W 093°25'3 6.2
2017-Oct-12 16:31N 30°04' W 093°22'3 6.6
2017-Oct-12 16:01N 30°06' W 093°19'2 3.3
2017-Oct-12 15:30N 30°05' W 093°17'1 1.5
2017-Oct-12 15:01N 30°05' W 093°17'0 0.0
2017-Oct-12 14:30N 30°05' W 093°17'2 3.8
2017-Oct-12 14:01N 30°03' W 093°16'3 5.3
2017-Oct-12 13:31N 30°01' W 093°14'2 3.2
2017-Oct-12 13:00N 29°60' W 093°13'0 0.2
2017-Oct-12 12:30N 29°59' W 093°13'3 5.1
2017-Oct-12 12:00N 29°58' W 093°11'43 5.3
2017-Oct-12 03:57N 29°51' W 092°22'2 4.4
2017-Oct-12 03:31N 29°50' W 092°20'1 1.1
2017-Oct-12 03:00N 29°50' W 092°19'2 3.2
2017-Oct-12 02:31N 29°49' W 092°18'2 4.6
2017-Oct-12 02:00N 29°48' W 092°15'3 5.7
2017-Oct-12 01:30N 29°47' W 092°12'2 4.8
2017-Oct-12 01:01N 29°47' W 092°10'3 6.1
2017-Oct-12 00:30N 29°48' W 092°06'3 5.9
2017-Oct-12 00:00N 29°49' W 092°03'3 5.3
2017-Oct-11 23:30N 29°50' W 092°00'  

Dump ship's entire track history